createdAt,value
2018-11-25T00:00:16.032Z,93.23
2018-11-25T00:02:44.180Z,89.33
2018-11-25T00:05:12.316Z,84.80
2018-11-25T00:07:40.457Z,72.70
2018-11-25T00:10:08.597Z,76.73
2018-11-25T00:12:36.784Z,76.87
2018-11-25T00:15:06.838Z,68.80
2018-11-25T00:17:34.996Z,90.97
2018-11-25T00:20:04.470Z,71.83
2018-11-25T00:22:32.670Z,73.63
2018-11-25T00:25:00.803Z,83.87
2018-11-25T00:27:28.933Z,89.47
2018-11-25T00:29:57.063Z,99.43
2018-11-25T00:32:25.207Z,84.13
2018-11-25T00:34:54.270Z,77.57
2018-11-25T00:37:22.375Z,74.07
2018-11-25T00:39:50.579Z,74.93
2018-11-25T00:42:18.690Z,81.80
2018-11-25T00:44:46.913Z,95.17
2018-11-25T00:47:15.421Z,76.27
2018-11-25T00:49:43.581Z,77.47
2018-11-25T00:52:11.716Z,83.80
2018-11-25T00:54:39.848Z,84.27
2018-11-25T00:57:08.009Z,83.70
2018-11-25T00:59:36.201Z,86.90
2018-11-25T01:02:04.588Z,69.43
2018-11-25T01:04:32.704Z,101.37
2018-11-25T01:07:00.858Z,101.63
2018-11-25T01:09:29.091Z,92.10
2018-11-25T01:11:57.238Z,84.40
2018-11-25T01:14:25.320Z,85.90
2018-11-25T01:16:53.432Z,85.90
2018-11-25T01:19:21.657Z,76.60
2018-11-25T01:21:49.807Z,85.33
2018-11-25T01:24:18.082Z,73.23
2018-11-25T01:26:46.210Z,75.23
2018-11-25T01:29:14.375Z,77.57
2018-11-25T01:31:42.588Z,83.67
2018-11-25T01:34:10.760Z,89.97
2018-11-25T01:36:38.864Z,76.27
2018-11-25T01:39:07.230Z,77.00
2018-11-25T01:41:35.393Z,73.27
2018-11-25T01:44:03.835Z,76.20
2018-11-25T01:46:32.037Z,73.87
2018-11-25T01:49:00.204Z,82.77
2018-11-25T01:51:28.321Z,75.27
2018-11-25T01:53:56.580Z,83.47
2018-11-25T01:56:24.685Z,83.33
2018-11-25T01:58:52.783Z,82.33
2018-11-25T02:01:20.917Z,79.10
2018-11-25T02:03:49.164Z,58.80
2018-11-25T02:06:17.267Z,75.97
2018-11-25T02:08:45.368Z,74.00
2018-11-25T02:11:13.522Z,76.57
2018-11-25T02:13:41.861Z,74.73
2018-11-25T02:16:10.029Z,80.40
2018-11-25T02:18:38.156Z,80.07
2018-11-25T02:21:06.375Z,82.30
2018-11-25T02:23:41.209Z,83.23
2018-11-25T02:26:09.690Z,84.43
2018-11-25T02:28:37.807Z,90.57
2018-11-25T02:31:05.974Z,88.53
2018-11-25T02:33:34.135Z,82.53
2018-11-25T02:36:02.280Z,87.23
2018-11-25T02:38:30.379Z,84.07
2018-11-25T02:40:58.614Z,78.13
2018-11-25T02:43:26.787Z,81.27
2018-11-25T02:45:54.939Z,71.73
2018-11-25T02:48:23.121Z,70.93
2018-11-25T02:50:51.284Z,66.93
2018-11-25T02:53:19.402Z,71.93
2018-11-25T02:55:47.620Z,62.70
2018-11-25T02:58:15.722Z,69.37
2018-11-25T03:00:43.863Z,66.13
2018-11-25T03:03:12.019Z,67.43
2018-11-25T03:05:40.308Z,71.83
2018-11-25T03:08:08.470Z,89.30
2018-11-25T03:10:36.602Z,82.33
2018-11-25T03:13:04.788Z,87.07
2018-11-25T03:15:32.966Z,90.63
2018-11-25T03:18:01.055Z,105.57
2018-11-25T03:20:29.210Z,92.10
2018-11-25T03:22:57.305Z,82.30
2018-11-25T03:25:25.518Z,64.50
2018-11-25T03:27:53.692Z,63.77
2018-11-25T03:30:22.260Z,62.93
2018-11-25T03:32:51.446Z,55.30
2018-11-25T03:35:19.649Z,52.10
2018-11-25T03:37:47.817Z,53.63
2018-11-25T03:40:16.863Z,63.40
2018-11-25T03:42:45.182Z,56.57
2018-11-25T03:45:18.250Z,53.27
2018-11-25T03:47:46.355Z,55.57
2018-11-25T03:50:15.043Z,54.63
2018-11-25T03:52:43.218Z,57.67
2018-11-25T03:55:12.405Z,64.33
2018-11-25T03:57:40.929Z,60.63
2018-11-25T04:00:11.518Z,64.20
2018-11-25T04:02:39.644Z,60.93
2018-11-25T04:05:09.391Z,66.23
2018-11-25T04:07:37.523Z,74.73
2018-11-25T04:10:10.705Z,73.10
2018-11-25T04:12:38.919Z,70.63
2018-11-25T04:15:15.021Z,77.20
2018-11-25T04:17:43.225Z,77.47
2018-11-25T04:20:13.097Z,71.77
2018-11-25T04:22:41.236Z,84.13
2018-11-25T04:25:10.212Z,90.97
2018-11-25T04:27:38.319Z,86.40
2018-11-25T04:30:13.500Z,82.60
2018-11-25T04:32:42.117Z,69.00
2018-11-25T04:35:11.244Z,80.90
2018-11-25T04:37:39.347Z,66.00
2018-11-25T04:40:10.646Z,77.47
2018-11-25T04:42:38.855Z,73.47
2018-11-25T04:45:11.318Z,72.40
2018-11-25T04:47:39.566Z,65.87
2018-11-25T04:50:23.282Z,64.67
2018-11-25T04:52:51.462Z,62.90
2018-11-25T04:55:19.671Z,55.90
2018-11-25T04:57:47.770Z,60.07
2018-11-25T05:00:15.876Z,54.20
2018-11-25T05:02:43.990Z,51.43
2018-11-25T05:05:13.213Z,46.23
2018-11-25T05:07:41.530Z,51.23
2018-11-25T05:10:11.773Z,49.37
2018-11-25T05:12:39.945Z,53.30
2018-11-25T05:15:12.682Z,49.80
2018-11-25T05:17:41.008Z,58.03
2018-11-25T05:20:10.139Z,50.37
2018-11-25T05:22:38.247Z,49.97
2018-11-25T05:25:15.341Z,48.83
2018-11-25T05:27:43.473Z,50.87
2018-11-25T05:30:13.516Z,49.50
2018-11-25T05:32:41.921Z,55.27
2018-11-25T05:35:11.247Z,64.57
2018-11-25T05:37:39.473Z,66.50
2018-11-25T05:40:09.951Z,66.10
2018-11-25T05:42:38.079Z,70.17
2018-11-25T05:45:08.290Z,71.87
2018-11-25T05:47:36.559Z,90.37
2018-11-25T05:50:05.985Z,81.87
2018-11-25T05:52:34.329Z,83.03
2018-11-25T05:55:02.523Z,93.17
2018-11-25T05:57:30.633Z,88.60
2018-11-25T05:59:58.797Z,97.27
2018-11-25T06:02:26.907Z,100.83
2018-11-25T06:04:55.050Z,114.23
2018-11-25T06:07:23.223Z,107.10
2018-11-25T06:09:51.335Z,99.13
2018-11-25T06:12:19.490Z,85.63
2018-11-25T06:14:47.650Z,89.07
2018-11-25T06:17:15.815Z,94.63
2018-11-25T06:19:43.974Z,107.73
2018-11-25T06:22:12.058Z,87.83
2018-11-25T06:24:40.180Z,96.70
2018-11-25T06:27:08.440Z,91.80
2018-11-25T06:29:36.741Z,107.77
2018-11-25T06:32:04.988Z,109.37
2018-11-25T06:34:33.103Z,144.27
2018-11-25T06:37:01.253Z,128.33
2018-11-25T06:39:29.504Z,112.40
2018-11-25T06:41:57.746Z,129.33
2018-11-25T06:44:25.872Z,116.70
2018-11-25T06:46:54.440Z,118.07
2018-11-25T06:49:22.542Z,136.93
2018-11-25T06:51:50.777Z,132.97
2018-11-25T06:54:18.865Z,130.17
2018-11-25T06:56:47.025Z,125.87
2018-11-25T06:59:15.118Z,173.93
2018-11-25T07:01:43.330Z,145.33
2018-11-25T07:04:11.523Z,153.17
2018-11-25T07:06:39.739Z,126.43
2018-11-25T07:09:09.908Z,139.03
2018-11-25T07:11:37.346Z,136.27
2018-11-25T07:14:05.533Z,135.47
2018-11-25T07:16:33.673Z,129.07
2018-11-25T07:19:01.804Z,135.33
2018-11-25T07:21:29.954Z,130.60
2018-11-25T07:23:58.143Z,137.50
2018-11-25T07:26:26.426Z,126.03
2018-11-25T07:28:54.596Z,121.33
2018-11-25T07:31:22.728Z,129.33
2018-11-25T07:33:51.281Z,140.27
2018-11-25T07:36:19.472Z,131.23
2018-11-25T07:38:47.728Z,142.47
2018-11-25T07:41:15.855Z,119.53
2018-11-25T07:43:43.979Z,137.37
2018-11-25T07:46:12.092Z,140.93
2018-11-25T07:48:40.320Z,126.70
2018-11-25T07:51:08.475Z,127.70
2018-11-25T07:53:36.711Z,137.43
2018-11-25T07:56:04.910Z,116.83
2018-11-25T07:58:33.115Z,123.00
2018-11-25T08:01:01.240Z,129.30
2018-11-25T08:03:29.375Z,129.00
2018-11-25T08:05:57.488Z,125.70
2018-11-25T08:08:25.627Z,122.23
2018-11-25T08:10:53.755Z,122.97
2018-11-25T08:13:21.911Z,132.70
2018-11-25T08:15:50.081Z,124.27
2018-11-25T08:18:18.214Z,130.13
2018-11-25T08:20:46.504Z,142.27
2018-11-25T08:23:15.676Z,133.73
2018-11-25T08:25:43.058Z,140.13
2018-11-25T08:28:11.278Z,125.90
2018-11-25T08:30:39.426Z,135.10
2018-11-25T08:33:07.558Z,141.73
2018-11-25T08:35:35.857Z,154.57
2018-11-25T08:38:04.254Z,136.30
2018-11-25T08:40:33.136Z,134.80
2018-11-25T08:43:01.305Z,116.43
2018-11-25T08:45:29.778Z,126.53
2018-11-25T08:47:57.965Z,103.10
2018-11-25T08:50:26.314Z,109.87
2018-11-25T08:52:54.584Z,105.27
2018-11-25T08:55:24.123Z,95.50
2018-11-25T08:57:52.910Z,104.57
2018-11-25T09:00:22.472Z,106.00
2018-11-25T09:02:51.760Z,116.37
2018-11-25T09:05:19.966Z,108.73
2018-11-25T09:07:48.185Z,123.97
2018-11-25T09:10:17.582Z,101.80
2018-11-25T09:12:55.314Z,93.80
2018-11-25T09:15:19.357Z,94.87
2018-11-25T09:17:47.530Z,85.43
2018-11-25T09:20:16.896Z,81.87
2018-11-25T09:22:45.069Z,89.00
2018-11-25T09:25:14.632Z,91.53
2018-11-25T09:27:42.865Z,82.63
2018-11-25T09:30:18.366Z,104.13
2018-11-25T09:32:46.610Z,93.30
2018-11-25T09:35:14.937Z,80.23
2018-11-25T09:37:43.103Z,85.17
2018-11-25T09:40:13.316Z,88.57
2018-11-25T09:42:41.618Z,78.33
2018-11-25T09:45:14.886Z,70.13
2018-11-25T09:47:43.367Z,80.20
2018-11-25T09:50:12.801Z,79.07
2018-11-25T09:52:41.002Z,74.33
2018-11-25T09:55:11.246Z,82.77
2018-11-25T09:57:39.875Z,78.70
2018-11-25T10:00:24.030Z,81.67
2018-11-25T10:02:52.179Z,72.30
2018-11-25T10:05:20.439Z,86.47
2018-11-25T10:07:48.643Z,77.27
2018-11-25T10:10:18.930Z,92.10
2018-11-25T10:12:47.033Z,88.97
2018-11-25T10:15:16.461Z,87.13
2018-11-25T10:17:44.542Z,84.23
2018-11-25T10:20:14.905Z,86.53
2018-11-25T10:22:43.105Z,90.43
2018-11-25T10:25:13.263Z,100.43
2018-11-25T10:27:41.573Z,97.17
2018-11-25T10:30:13.801Z,97.37
2018-11-25T10:32:42.501Z,97.93
2018-11-25T10:35:10.723Z,93.87
2018-11-25T10:37:38.810Z,100.83
2018-11-25T10:40:15.434Z,92.00
2018-11-25T10:42:43.566Z,92.27
2018-11-25T10:45:13.983Z,87.77
2018-11-25T10:47:48.770Z,102.50
2018-11-25T10:50:18.083Z,95.33
2018-11-25T10:52:46.466Z,94.40
2018-11-25T10:55:15.804Z,99.13
2018-11-25T10:57:45.078Z,103.47
2018-11-25T11:00:28.446Z,88.50
2018-11-25T11:02:56.554Z,86.33
2018-11-25T11:05:24.883Z,91.83
2018-11-25T11:07:53.339Z,94.63
2018-11-25T11:10:21.596Z,90.73
2018-11-25T11:12:49.772Z,84.50
2018-11-25T11:15:17.899Z,101.10
2018-11-25T11:17:46.011Z,98.37
2018-11-25T11:20:14.134Z,106.43
2018-11-25T11:22:42.290Z,84.33
2018-11-25T11:25:10.440Z,95.40
2018-11-25T11:27:38.743Z,90.77
2018-11-25T11:30:09.559Z,90.00
2018-11-25T11:32:40.188Z,85.57
2018-11-25T11:35:08.515Z,89.60
2018-11-25T11:37:36.944Z,90.97
2018-11-25T11:40:11.343Z,100.47
2018-11-25T11:42:39.546Z,98.33
2018-11-25T11:45:09.608Z,112.30
2018-11-25T11:47:37.823Z,107.77
2018-11-25T11:50:10.560Z,106.33
2018-11-25T11:52:38.942Z,108.37
2018-11-25T11:55:08.838Z,106.43
2018-11-25T11:57:37.051Z,102.27
2018-11-25T12:00:10.999Z,106.07
2018-11-25T12:02:39.136Z,98.07
2018-11-25T12:05:07.435Z,92.03
2018-11-25T12:07:35.583Z,87.73
2018-11-25T12:10:04.679Z,91.10
2018-11-25T12:12:32.918Z,81.73
2018-11-25T12:15:01.088Z,84.60
2018-11-25T12:17:29.485Z,79.60
2018-11-25T12:19:57.622Z,82.87
2018-11-25T12:22:25.896Z,83.27
2018-11-25T12:24:54.059Z,80.40
2018-11-25T12:27:22.320Z,84.53
2018-11-25T12:29:50.526Z,90.33
2018-11-25T12:32:18.662Z,95.47
2018-11-25T12:34:46.807Z,79.80
2018-11-25T12:37:14.944Z,99.53
2018-11-25T12:39:43.152Z,87.10
2018-11-25T12:42:11.280Z,89.60
2018-11-25T12:44:40.534Z,87.40
2018-11-25T12:47:08.694Z,95.90
2018-11-25T12:49:36.847Z,100.27
2018-11-25T12:52:05.134Z,94.27
2018-11-25T12:54:33.236Z,98.27
2018-11-25T12:57:01.451Z,105.23
2018-11-25T12:59:29.631Z,103.50
2018-11-25T13:01:57.865Z,103.70
2018-11-25T13:04:27.808Z,98.97
2018-11-25T13:06:54.300Z,111.70
2018-11-25T13:09:22.438Z,108.30
2018-11-25T13:11:52.416Z,105.27
2018-11-25T13:14:18.752Z,98.77
2018-11-25T13:16:46.857Z,104.77
2018-11-25T13:19:20.726Z,92.67
2018-11-25T13:21:48.839Z,93.43
2018-11-25T13:24:17.019Z,99.97
2018-11-25T13:26:45.122Z,98.57
2018-11-25T13:29:13.365Z,98.13
2018-11-25T13:31:41.625Z,97.13
2018-11-25T13:34:09.817Z,95.30
2018-11-25T13:36:38.094Z,100.93
2018-11-25T13:39:08.558Z,95.30
2018-11-25T13:41:36.938Z,97.87
2018-11-25T13:44:06.065Z,101.40
2018-11-25T13:46:34.244Z,104.17
2018-11-25T13:49:02.565Z,105.57
2018-11-25T13:51:30.761Z,105.70
2018-11-25T13:53:59.304Z,113.07
2018-11-25T13:56:27.810Z,104.17
2018-11-25T13:58:56.034Z,110.80
2018-11-25T14:01:24.191Z,99.40
2018-11-25T14:03:52.370Z,103.73
2018-11-25T14:06:20.483Z,103.07
2018-11-25T14:08:52.636Z,104.40
2018-11-25T14:11:20.773Z,108.37
2018-11-25T14:13:48.912Z,100.37
2018-11-25T14:16:18.996Z,101.90
2018-11-25T14:18:47.152Z,93.17
2018-11-25T14:21:15.755Z,92.27
2018-11-25T14:23:43.575Z,104.50
2018-11-25T14:26:15.405Z,91.53
2018-11-25T14:28:44.248Z,93.03
2018-11-25T14:31:12.377Z,100.70
2018-11-25T14:33:40.596Z,96.17
2018-11-25T14:36:08.717Z,99.83
2018-11-25T14:38:36.878Z,93.47
2018-11-25T14:41:05.133Z,91.37
2018-11-25T14:43:33.268Z,85.83
2018-11-25T14:46:01.376Z,92.07
2018-11-25T14:48:29.492Z,94.27
2018-11-25T14:50:57.594Z,92.63
2018-11-25T14:53:25.706Z,86.53
2018-11-25T14:55:53.892Z,89.50
2018-11-25T14:58:22.175Z,85.07
2018-11-25T15:00:50.524Z,77.47
2018-11-25T15:03:18.710Z,72.97
2018-11-25T15:05:48.105Z,74.77
2018-11-25T15:08:21.127Z,69.60
2018-11-25T15:10:49.324Z,77.90
2018-11-25T15:13:17.510Z,75.33
2018-11-25T15:15:45.578Z,71.87
2018-11-25T15:18:13.688Z,57.80
2018-11-25T15:20:41.897Z,58.00
2018-11-25T15:23:12.384Z,63.03
2018-11-25T15:25:42.637Z,61.60
2018-11-25T15:28:10.841Z,58.50
2018-11-25T15:30:38.947Z,56.17
2018-11-25T15:33:07.291Z,58.93
2018-11-25T15:35:35.406Z,60.53
2018-11-25T15:38:03.687Z,68.20
2018-11-25T15:40:33.145Z,55.73
2018-11-25T15:43:01.355Z,66.80
2018-11-25T15:45:29.502Z,70.27
2018-11-25T15:48:00.524Z,61.73
2018-11-25T15:50:29.389Z,67.10
2018-11-25T15:52:57.554Z,69.20
2018-11-25T15:55:25.726Z,70.60
2018-11-25T15:57:53.928Z,70.03
2018-11-25T16:00:23.147Z,64.43
2018-11-25T16:02:51.304Z,63.80
2018-11-25T16:05:28.726Z,64.70
2018-11-25T16:07:57.014Z,59.00
2018-11-25T16:10:25.376Z,65.23
2018-11-25T16:12:53.655Z,72.57
2018-11-25T16:15:23.289Z,67.60
2018-11-25T16:17:51.372Z,67.33
2018-11-25T16:20:21.959Z,61.77
2018-11-25T16:22:51.712Z,75.77
2018-11-25T16:25:38.839Z,71.43
2018-11-25T16:28:12.218Z,73.40
2018-11-25T16:30:40.368Z,69.40
2018-11-25T16:33:08.483Z,75.97
2018-11-25T16:35:36.589Z,79.33
2018-11-25T16:38:05.589Z,72.53
2018-11-25T16:40:33.754Z,69.53
2018-11-25T16:43:01.998Z,75.50
2018-11-25T16:45:30.134Z,76.10
2018-11-25T16:47:58.658Z,69.07
2018-11-25T16:50:26.852Z,84.87
2018-11-25T16:52:55.004Z,81.53
2018-11-25T16:55:23.343Z,79.07
2018-11-25T16:57:51.495Z,71.57
2018-11-25T17:00:19.940Z,77.93
2018-11-25T17:02:48.190Z,79.07
2018-11-25T17:05:23.078Z,80.63
2018-11-25T17:07:55.138Z,80.60
2018-11-25T17:10:23.384Z,82.67
2018-11-25T17:12:51.519Z,82.43
2018-11-25T17:15:21.910Z,84.87
2018-11-25T17:17:50.154Z,74.67
2018-11-25T17:20:18.289Z,87.00
2018-11-25T17:22:46.404Z,84.70
2018-11-25T17:25:14.594Z,79.03
2018-11-25T17:27:42.997Z,77.97
2018-11-25T17:30:12.642Z,79.83
2018-11-25T17:32:41.242Z,84.40
2018-11-25T17:35:15.144Z,87.80
2018-11-25T17:37:43.366Z,87.33
2018-11-25T17:40:11.594Z,85.80
2018-11-25T17:42:39.985Z,96.40
2018-11-25T17:45:10.499Z,84.90
2018-11-25T17:47:38.704Z,81.73
2018-11-25T17:50:13.119Z,87.90
2018-11-25T17:52:41.242Z,86.60
2018-11-25T17:55:10.800Z,80.73
2018-11-25T17:57:39.094Z,79.03
2018-11-25T18:00:13.076Z,78.50
2018-11-25T18:02:41.460Z,87.07
2018-11-25T18:05:09.937Z,83.87
2018-11-25T18:07:38.069Z,86.53
2018-11-25T18:10:09.746Z,76.90
2018-11-25T18:12:37.919Z,82.63
2018-11-25T18:15:15.861Z,89.40
2018-11-25T18:17:52.848Z,79.03
2018-11-25T18:20:21.519Z,78.50
2018-11-25T18:22:49.923Z,77.90
2018-11-25T18:25:18.079Z,77.10
2018-11-25T18:27:46.231Z,70.80
2018-11-25T18:30:15.975Z,75.40
2018-11-25T18:32:44.666Z,89.87
2018-11-25T18:35:12.914Z,82.00
2018-11-25T18:37:41.354Z,82.53
2018-11-25T18:40:11.504Z,84.33
2018-11-25T18:42:40.187Z,84.40
2018-11-25T18:45:11.605Z,86.03
2018-11-25T18:47:39.850Z,87.73
2018-11-25T18:50:10.979Z,76.53
2018-11-25T18:52:39.543Z,84.27
2018-11-25T18:55:06.477Z,74.87
2018-11-25T18:57:34.571Z,84.60
2018-11-25T19:00:03.425Z,84.23
2018-11-25T19:02:40.485Z,82.33
2018-11-25T19:05:08.788Z,92.57
2018-11-25T19:07:38.798Z,82.53
2018-11-25T19:10:10.581Z,91.53
2018-11-25T19:12:44.017Z,91.40
2018-11-25T19:15:08.927Z,85.40
2018-11-25T19:17:37.779Z,87.50
2018-11-25T19:20:13.261Z,83.67
2018-11-25T19:22:43.946Z,93.17
2018-11-25T19:25:14.640Z,86.93
2018-11-25T19:27:43.822Z,80.47
2018-11-25T19:30:13.951Z,82.67
2018-11-25T19:32:43.202Z,83.90
2018-11-25T19:35:14.384Z,83.40
2018-11-25T19:37:43.375Z,85.60
2018-11-25T19:40:16.427Z,80.47
2018-11-25T19:42:44.691Z,77.27
2018-11-25T19:45:14.556Z,76.23
2018-11-25T19:47:42.939Z,86.87
2018-11-25T19:50:13.571Z,72.43
2018-11-25T19:52:41.988Z,79.77
2018-11-25T19:55:10.162Z,81.87
2018-11-25T19:57:38.560Z,70.43
2018-11-25T20:00:14.450Z,77.67
2018-11-25T20:02:42.643Z,72.07
2018-11-25T20:05:12.259Z,67.13
2018-11-25T20:07:47.112Z,67.23
2018-11-25T20:10:19.501Z,71.13
2018-11-25T20:12:49.005Z,81.87
2018-11-25T20:15:17.336Z,77.93
2018-11-25T20:17:53.751Z,73.10
2018-11-25T20:20:15.977Z,76.30
2018-11-25T20:22:44.287Z,68.63
2018-11-25T20:25:13.275Z,63.93
2018-11-25T20:27:41.471Z,66.43
2018-11-25T20:30:11.367Z,70.93
2018-11-25T20:32:39.521Z,72.03
2018-11-25T20:35:07.663Z,71.63
2018-11-25T20:37:35.936Z,71.33
2018-11-25T20:40:04.161Z,74.57
2018-11-25T20:42:32.366Z,77.13
2018-11-25T20:45:00.530Z,71.17
2018-11-25T20:47:28.705Z,70.83
2018-11-25T20:49:56.974Z,78.83
2018-11-25T20:52:25.083Z,79.87
2018-11-25T20:54:53.349Z,76.97
2018-11-25T20:57:21.447Z,75.80
2018-11-25T20:59:49.648Z,88.07
2018-11-25T21:02:20.425Z,76.53
2018-11-25T21:04:46.037Z,76.63
2018-11-25T21:07:14.126Z,74.03
2018-11-25T21:09:42.631Z,73.63
2018-11-25T21:12:10.835Z,78.10
2018-11-25T21:14:39.050Z,71.67
2018-11-25T21:17:07.236Z,81.87
2018-11-25T21:19:35.422Z,79.77
2018-11-25T21:22:03.671Z,82.00
2018-11-25T21:24:31.752Z,85.63
2018-11-25T21:26:59.901Z,75.97
2018-11-25T21:29:27.985Z,77.70
2018-11-25T21:31:56.190Z,81.50
2018-11-25T21:34:24.355Z,94.87
2018-11-25T21:36:52.695Z,94.63
2018-11-25T21:39:20.829Z,94.00
2018-11-25T21:41:49.141Z,93.90
2018-11-25T21:44:17.289Z,90.97
2018-11-25T21:46:45.422Z,93.43
2018-11-25T21:49:20.316Z,93.67
2018-11-25T21:51:48.537Z,90.70
2018-11-25T21:54:16.737Z,100.40
2018-11-25T21:56:44.949Z,106.83
2018-11-25T21:59:13.129Z,107.37
2018-11-25T22:01:41.387Z,91.50
2018-11-25T22:04:09.460Z,92.30
2018-11-25T22:06:37.751Z,85.90
2018-11-25T22:09:08.775Z,94.13
2018-11-25T22:11:37.116Z,96.30
2018-11-25T22:14:05.593Z,105.23
2018-11-25T22:16:33.805Z,104.73
2018-11-25T22:19:02.001Z,99.57
2018-11-25T22:21:30.496Z,104.70
2018-11-25T22:23:58.653Z,109.47
2018-11-25T22:26:26.982Z,122.10
2018-11-25T22:28:55.136Z,100.67
2018-11-25T22:31:23.261Z,111.40
2018-11-25T22:33:51.541Z,111.87
2018-11-25T22:36:19.728Z,119.87
2018-11-25T22:38:47.924Z,110.30
2018-11-25T22:41:16.045Z,122.93
2018-11-25T22:43:44.251Z,118.50
2018-11-25T22:46:12.381Z,115.90
2018-11-25T22:48:40.525Z,128.80
2018-11-25T22:51:08.656Z,116.47
2018-11-25T22:53:36.801Z,108.93
2018-11-25T22:56:05.240Z,123.07
2018-11-25T22:58:33.413Z,129.43
2018-11-25T23:01:01.588Z,119.93
2018-11-25T23:03:29.858Z,125.23
2018-11-25T23:06:37.351Z,128.77
2018-11-25T23:09:07.263Z,125.57
2018-11-25T23:11:35.452Z,126.93
2018-11-25T23:14:03.892Z,118.57
2018-11-25T23:16:32.108Z,122.67
2018-11-25T23:19:00.325Z,122.13
2018-11-25T23:21:28.439Z,140.60
2018-11-25T23:23:56.633Z,133.27
2018-11-25T23:26:24.788Z,138.43
2018-11-25T23:28:52.925Z,127.47
2018-11-25T23:31:21.045Z,121.33
2018-11-25T23:33:49.222Z,142.07
2018-11-25T23:36:17.377Z,130.73
2018-11-25T23:38:45.576Z,134.67
2018-11-25T23:41:13.877Z,133.10
2018-11-25T23:43:42.588Z,137.43
2018-11-25T23:46:11.036Z,141.40
2018-11-25T23:48:39.889Z,127.73
2018-11-25T23:51:08.108Z,127.27
2018-11-25T23:53:36.443Z,116.57
2018-11-25T23:56:04.871Z,123.80
2018-11-25T23:58:33.681Z,132.13
